createdAt,value
2019-03-13T00:12:01.173Z,5.90
2019-03-13T00:15:19.179Z,5.10
2019-03-13T00:18:00.668Z,3.70
2019-03-13T00:21:01.691Z,3.13
2019-03-13T00:24:40.917Z,7.13
2019-03-13T00:30:53.028Z,6.37
2019-03-13T00:34:01.959Z,4.47
2019-03-13T00:37:31.198Z,5.17
2019-03-13T00:44:27.335Z,7.57
2019-03-13T00:46:39.489Z,5.30
2019-03-13T00:50:07.446Z,4.70
2019-03-13T00:57:10.562Z,4.53
2019-03-13T01:06:26.130Z,10.03
2019-03-13T01:09:46.150Z,7.00
2019-03-13T01:13:03.265Z,8.00
2019-03-13T01:15:54.473Z,13.60
2019-03-13T01:19:05.224Z,3.13
2019-03-13T01:21:42.051Z,3.40
2019-03-13T01:28:12.928Z,3.27
2019-03-13T01:31:28.922Z,3.90
2019-03-13T01:34:45.206Z,4.37
2019-03-13T01:38:09.266Z,5.83
2019-03-13T01:40:49.435Z,4.20
2019-03-13T01:44:12.256Z,3.20
2019-03-13T01:47:21.059Z,7.00
2019-03-13T01:54:07.222Z,4.10
2019-03-13T01:56:58.978Z,4.47
2019-03-13T01:59:44.603Z,5.90
2019-03-13T02:02:40.970Z,5.10
2019-03-13T02:12:39.375Z,7.10
2019-03-13T02:19:21.530Z,4.77
2019-03-13T02:22:11.192Z,5.30
2019-03-13T02:25:45.687Z,7.73
2019-03-13T02:27:50.783Z,6.53
2019-03-13T02:30:41.154Z,5.20
2019-03-13T02:36:37.468Z,2.93
2019-03-13T02:39:38.769Z,20.63
2019-03-13T02:42:52.356Z,7.03
2019-03-13T02:45:59.463Z,11.43
2019-03-13T02:48:47.251Z,7.83
2019-03-13T02:52:18.372Z,7.80
2019-03-13T02:55:21.178Z,6.70
2019-03-13T02:58:18.618Z,7.00
2019-03-13T03:01:39.736Z,8.03
2019-03-13T03:04:55.432Z,6.90
2019-03-13T03:07:51.160Z,8.60
2019-03-13T03:10:29.525Z,6.40
2019-03-13T03:13:10.806Z,6.13
2019-03-13T03:16:15.293Z,8.33
2019-03-13T03:25:51.916Z,2.80
2019-03-13T03:29:11.903Z,7.57
2019-03-13T03:31:59.019Z,8.13
2019-03-13T03:34:51.560Z,5.87
2019-03-13T03:37:41.385Z,5.27
2019-03-13T03:40:49.442Z,8.87
2019-03-13T03:43:50.230Z,9.87
2019-03-13T03:46:44.075Z,5.37
2019-03-13T03:49:27.570Z,4.97
2019-03-13T03:52:25.940Z,12.10
2019-03-13T03:55:54.040Z,5.53
2019-03-13T03:58:56.957Z,5.53
2019-03-13T04:02:01.065Z,6.60
2019-03-13T04:05:00.825Z,5.97
2019-03-13T04:07:55.727Z,5.40
2019-03-13T04:11:12.390Z,9.63
2019-03-13T04:14:03.949Z,12.60
2019-03-13T04:17:30.950Z,4.20
2019-03-13T04:20:36.893Z,6.50
2019-03-13T04:23:22.917Z,12.40
2019-03-13T04:26:24.763Z,9.73
2019-03-13T04:32:53.372Z,7.10
2019-03-13T04:39:23.850Z,10.40
2019-03-13T04:42:53.800Z,7.70
2019-03-13T04:46:01.072Z,6.30
2019-03-13T04:49:57.163Z,8.83
2019-03-13T05:57:13.447Z,4.57
2019-03-13T06:06:02.961Z,5.93
2019-03-13T06:34:12.800Z,6.13
2019-03-13T07:34:48.798Z,9.67
2019-03-13T07:40:45.004Z,7.70
2019-03-13T08:31:20.580Z,6.30
2019-03-13T08:44:15.911Z,8.43
2019-03-13T08:50:43.539Z,6.90
2019-03-13T08:56:09.490Z,7.50
2019-03-13T09:03:30.023Z,8.57
2019-03-13T09:09:36.582Z,8.77
2019-03-13T09:12:50.518Z,7.83
2019-03-13T09:18:48.737Z,10.17
2019-03-13T09:22:03.298Z,9.13
2019-03-13T10:26:32.727Z,14.83
2019-03-13T10:36:37.277Z,14.10
2019-03-13T10:49:47.383Z,15.97
2019-03-13T11:09:48.914Z,19.93
2019-03-13T11:16:28.055Z,19.30
2019-03-13T11:19:39.088Z,17.07
2019-03-13T11:25:59.553Z,18.23
2019-03-13T11:29:44.863Z,18.30
2019-03-13T11:33:26.042Z,17.17
2019-03-13T11:39:57.311Z,25.00
2019-03-13T11:43:59.676Z,19.70
2019-03-13T11:53:31.130Z,17.53
2019-03-13T12:23:34.928Z,16.47
2019-03-13T12:32:59.917Z,12.23
2019-03-13T12:36:12.394Z,16.60
2019-03-13T12:46:55.942Z,15.60
2019-03-13T12:53:43.486Z,16.53
2019-03-13T12:57:13.611Z,12.63
2019-03-13T13:07:38.149Z,18.50
2019-03-13T13:10:43.764Z,18.67
2019-03-13T13:13:29.091Z,19.47
2019-03-13T13:16:31.196Z,18.63
2019-03-13T13:19:06.494Z,19.97
2019-03-13T13:34:40.134Z,20.37
2019-03-13T13:40:52.877Z,22.93
2019-03-13T13:45:19.109Z,22.53
2019-03-13T13:58:47.515Z,28.80
2019-03-13T14:02:17.853Z,18.90
2019-03-13T14:05:18.261Z,19.23
2019-03-13T14:08:08.510Z,31.17
2019-03-13T14:13:39.129Z,23.67
2019-03-13T14:55:30.887Z,21.77
2019-03-13T14:58:18.897Z,17.60
2019-03-13T15:12:16.722Z,18.17
2019-03-13T15:14:47.750Z,14.77
2019-03-13T15:17:21.518Z,15.33
2019-03-13T15:19:56.397Z,20.07
2019-03-13T15:22:30.963Z,13.70
2019-03-13T15:43:00.076Z,17.17
2019-03-13T15:45:31.163Z,22.27
2019-03-13T15:47:21.918Z,14.07
2019-03-13T15:50:19.505Z,15.23
2019-03-13T15:53:13.815Z,13.40
2019-03-13T15:56:04.070Z,21.33
2019-03-13T15:58:39.966Z,18.33
2019-03-13T16:01:18.111Z,19.57
2019-03-13T16:03:55.424Z,18.40
2019-03-13T16:06:32.253Z,16.23
2019-03-13T16:09:05.201Z,19.30
2019-03-13T16:11:45.524Z,22.00
2019-03-13T16:14:24.138Z,21.83
2019-03-13T16:20:19.131Z,20.53
2019-03-13T16:23:35.774Z,22.63
2019-03-13T16:26:14.869Z,17.33
2019-03-13T16:28:49.112Z,18.70
2019-03-13T16:31:27.171Z,13.20
2019-03-13T16:34:24.086Z,24.57
2019-03-13T16:36:59.842Z,17.70
2019-03-13T16:39:46.091Z,21.70
2019-03-13T16:42:39.885Z,26.90
2019-03-13T16:45:21.569Z,21.30
2019-03-13T16:47:59.519Z,16.57
2019-03-13T16:50:48.092Z,17.73
2019-03-13T16:54:04.567Z,19.97
2019-03-13T16:56:39.900Z,15.57
2019-03-13T16:59:10.622Z,15.53
2019-03-13T17:02:04.470Z,15.90
2019-03-13T17:05:04.061Z,16.80
2019-03-13T17:07:37.954Z,16.07
2019-03-13T17:10:15.235Z,13.33
2019-03-13T17:12:54.645Z,16.40
2019-03-13T17:16:02.266Z,15.53
2019-03-13T17:18:44.678Z,14.77
2019-03-13T17:21:22.814Z,18.67
2019-03-13T17:24:17.441Z,13.80
2019-03-13T17:27:00.580Z,16.20
2019-03-13T17:29:41.499Z,17.77
2019-03-13T17:32:51.375Z,18.80
2019-03-13T17:35:59.913Z,18.97
2019-03-13T17:39:12.311Z,14.03
2019-03-13T17:41:46.317Z,15.97
2019-03-13T17:44:49.984Z,16.33
2019-03-13T17:48:27.025Z,13.67
2019-03-13T17:50:54.276Z,23.90
2019-03-13T17:53:29.778Z,20.77
2019-03-13T17:56:23.334Z,18.60
2019-03-13T17:58:54.260Z,17.23
2019-03-13T18:01:24.717Z,22.23
2019-03-13T18:03:57.835Z,22.50
2019-03-13T18:06:31.665Z,20.07
2019-03-13T18:09:14.704Z,11.07
2019-03-13T18:11:54.420Z,18.70
2019-03-13T18:14:34.996Z,14.23
2019-03-13T18:17:08.224Z,17.50
2019-03-13T18:19:40.721Z,15.63
2019-03-13T18:22:23.385Z,19.97
2019-03-13T18:25:01.186Z,24.07
2019-03-13T18:28:32.115Z,20.13
2019-03-13T18:31:02.888Z,25.20
2019-03-13T18:33:48.088Z,22.17
2019-03-13T18:36:15.412Z,19.87
2019-03-13T18:39:00.783Z,13.27
2019-03-13T18:41:52.956Z,17.57
2019-03-13T18:44:38.108Z,23.33
2019-03-13T18:47:20.969Z,21.57
2019-03-13T18:49:58.787Z,26.07
2019-03-13T18:52:37.299Z,23.73
2019-03-13T18:55:10.871Z,31.27
2019-03-13T18:58:06.620Z,28.87
2019-03-13T19:00:45.853Z,25.10
2019-03-13T19:03:31.585Z,33.43
2019-03-13T19:06:26.289Z,24.07
2019-03-13T19:08:57.106Z,22.23
2019-03-13T19:11:34.774Z,26.80
2019-03-13T19:14:23.090Z,22.40
2019-03-13T19:17:08.007Z,23.30
2019-03-13T19:19:51.626Z,32.27
2019-03-13T19:22:43.070Z,31.87
2019-03-13T19:25:17.838Z,33.20
2019-03-13T19:27:51.563Z,31.73
2019-03-13T19:31:14.990Z,25.33
2019-03-13T19:33:22.546Z,30.37
2019-03-13T19:36:11.704Z,33.23
2019-03-13T19:38:33.016Z,35.00
2019-03-13T19:41:21.979Z,32.50
2019-03-13T19:44:13.777Z,34.33
2019-03-13T19:47:03.310Z,35.37
2019-03-13T19:50:10.596Z,31.77
2019-03-13T19:52:29.115Z,48.17
2019-03-13T19:55:05.395Z,37.37
2019-03-13T19:58:00.390Z,40.07
2019-03-13T20:03:16.831Z,41.83
2019-03-13T20:06:13.568Z,42.63
2019-03-13T20:09:07.907Z,37.50
2019-03-13T20:11:58.591Z,45.47
2019-03-13T20:14:43.204Z,43.57
2019-03-13T20:17:53.832Z,30.10
2019-03-13T20:20:06.637Z,36.50
2019-03-13T20:22:44.396Z,35.63
2019-03-13T20:25:19.479Z,33.80
2019-03-13T20:27:56.209Z,33.40
2019-03-13T20:30:28.584Z,38.30
2019-03-13T20:33:03.606Z,31.37
2019-03-13T20:35:37.594Z,36.27
2019-03-13T20:38:12.034Z,44.00
2019-03-13T20:40:52.141Z,39.83
2019-03-13T20:43:23.194Z,36.40
2019-03-13T20:46:04.879Z,42.50
2019-03-13T20:48:54.396Z,42.20
2019-03-13T20:52:09.777Z,36.73
2019-03-13T20:54:42.354Z,33.77
2019-03-13T20:57:31.962Z,35.87
2019-03-13T21:00:36.373Z,34.83
2019-03-13T21:02:48.181Z,35.57
2019-03-13T21:05:34.159Z,46.30
2019-03-13T21:17:33.608Z,38.70
2019-03-13T21:20:05.168Z,40.20
2019-03-13T21:22:40.234Z,30.37
2019-03-13T21:25:16.573Z,28.33
2019-03-13T21:27:48.621Z,36.13
2019-03-13T21:30:29.502Z,34.67
2019-03-13T21:33:12.945Z,39.87
2019-03-13T21:35:46.869Z,31.97
2019-03-13T21:38:27.795Z,31.97
2019-03-13T21:41:13.203Z,38.60
2019-03-13T21:44:14.044Z,36.97
2019-03-13T21:47:00.516Z,42.20
2019-03-13T21:49:56.781Z,42.30
2019-03-13T21:52:39.441Z,37.57
2019-03-13T21:55:17.559Z,35.10
2019-03-13T21:57:54.250Z,36.43
2019-03-13T22:00:44.901Z,35.37
2019-03-13T22:03:27.901Z,32.47
2019-03-13T22:05:50.949Z,45.23
2019-03-13T22:08:38.172Z,37.87
2019-03-13T22:11:49.680Z,36.27
2019-03-13T22:14:39.338Z,35.37
2019-03-13T22:17:10.675Z,35.50
2019-03-13T22:20:07.590Z,42.20
2019-03-13T22:22:52.383Z,42.13
2019-03-13T22:25:29.181Z,38.67
2019-03-13T22:28:08.240Z,33.20
2019-03-13T22:30:46.110Z,41.70
2019-03-13T22:33:18.511Z,38.30
2019-03-13T22:35:49.231Z,48.40
2019-03-13T22:38:21.107Z,43.43
2019-03-13T22:40:55.737Z,51.80
2019-03-13T22:43:28.652Z,31.53
2019-03-13T22:46:01.709Z,37.67
2019-03-13T22:48:34.314Z,42.03
2019-03-13T22:51:13.759Z,34.97
2019-03-13T22:53:52.337Z,34.50
2019-03-13T22:56:22.948Z,45.37
2019-03-13T22:58:53.718Z,45.13
2019-03-13T23:01:35.000Z,42.77
2019-03-13T23:04:05.919Z,37.50
2019-03-13T23:06:38.890Z,42.23
2019-03-13T23:09:23.405Z,42.50
2019-03-13T23:12:03.081Z,47.20
2019-03-13T23:14:35.443Z,35.50
2019-03-13T23:17:06.344Z,36.87
2019-03-13T23:19:36.951Z,39.83
2019-03-13T23:22:09.288Z,35.33
2019-03-13T23:24:39.899Z,41.40
2019-03-13T23:27:26.734Z,28.60
2019-03-13T23:29:57.374Z,38.13
2019-03-13T23:32:27.941Z,36.77
2019-03-13T23:35:07.290Z,37.27
2019-03-13T23:37:41.347Z,39.07
2019-03-13T23:40:22.056Z,44.80
2019-03-13T23:42:52.917Z,32.23
2019-03-13T23:45:25.017Z,31.50
2019-03-13T23:47:59.265Z,32.33
2019-03-13T23:50:29.761Z,40.23
2019-03-13T23:53:00.285Z,32.77
2019-03-13T23:55:32.764Z,37.83
2019-03-13T23:58:05.461Z,30.83
